Time;durP1;ratioP1;P1;durP2;ratioP2;P2;SDS_P1;SDS_P2;PMS_P1;PMS_P2;Temp;Humidity;BMP_temperature;BMP_pressure;BME280_temperature;BME280_humidity;BME280_pressure;Samples;Min_cycle;Max_cycle;Signal;HPM_P1;HPM_P2
2022/10/11 00:00:47;;;;;;;0.73;0.73;;;;;;;13.78;71.71;99762.50;4487508;31;33303;-71
2022/10/11 00:03:16;;;;;;;0.57;0.57;;;;;;;14.32;68.81;99766.75;4495049;31;33941;-71
2022/10/11 00:05:43;;;;;;;0.95;0.90;;;;;;;13.57;72.12;99758.47;4491678;31;35857;-71
2022/10/11 00:08:12;;;;;;;1.20;1.20;;;;;;;13.70;71.75;99758.28;4488628;31;34468;-71
2022/10/11 00:10:41;;;;;;;3.03;1.00;;;;;;;13.41;72.40;99744.78;4497891;31;33314;-72
2022/10/11 00:13:20;;;;;;;0.37;0.37;;;;;;;14.09;69.81;99750.63;4485073;32;229807;-71
2022/10/11 00:16:06;;;;;;;1.62;1.55;;;;;;;13.52;71.37;99759.41;4482708;32;162011;-71
2022/10/11 00:18:45;;;;;;;0.80;0.80;;;;;;;13.37;71.93;99763.16;4477969;32;153320;-71
2022/10/11 00:21:26;;;;;;;1.02;0.90;;;;;;;13.36;72.07;99758.81;4486645;31;155915;-71
2022/10/11 00:24:06;;;;;;;0.95;0.95;;;;;;;13.00;72.96;99758.44;4483001;32;135828;-71
2022/10/11 00:26:46;;;;;;;0.50;0.50;;;;;;;13.03;73.35;99756.63;4478402;32;128551;-72
2022/10/11 00:29:25;;;;;;;0.47;0.47;;;;;;;13.73;70.24;99755.59;4487216;32;142174;-71
2022/10/11 00:32:05;;;;;;;0.60;0.60;;;;;;;13.11;71.79;99753.91;4526167;31;85251;-72
2022/10/11 00:34:45;;;;;;;2.15;1.80;;;;;;;13.93;68.33;99756.13;4478595;32;130205;-71
2022/10/11 00:37:26;;;;;;;1.00;0.98;;;;;;;13.44;69.58;99747.31;4526738;31;66520;-71
2022/10/11 00:40:12;;;;;;;0.45;0.45;;;;;;;13.23;70.29;99752.88;4482291;32;156320;-72
2022/10/11 00:42:52;;;;;;;0.95;0.68;;;;;;;12.90;71.31;99750.72;4483998;31;850914;-71
2022/10/11 00:45:33;;;;;;;0.85;0.85;;;;;;;13.15;70.52;99745.16;4526635;31;75157;-71
2022/10/11 00:48:21;;;;;;;0.93;0.93;;;;;;;13.45;68.91;99748.22;4481231;32;163684;-71
2022/10/11 00:51:02;;;;;;;0.88;0.88;;;;;;;12.66;72.16;99740.59;4486998;31;827250;-72
2022/10/11 00:53:42;;;;;;;1.12;0.98;;;;;;;12.39;72.46;99742.66;4484963;32;156064;-72
2022/10/11 00:56:26;;;;;;;1.50;1.35;;;;;;;13.08;69.75;99743.50;4481523;32;130719;-71
2022/10/11 00:59:11;;;;;;;0.80;0.80;;;;;;;12.91;70.02;99738.12;4489687;32;130012;-71
2022/10/11 01:01:52;;;;;;;0.68;0.68;;;;;;;12.46;71.07;99748.69;4479042;31;781251;-72
2022/10/11 01:04:30;;;;;;;0.60;0.60;;;;;;;12.36;72.02;99738.38;4479310;31;161518;-71
2022/10/11 01:07:10;;;;;;;1.12;0.70;;;;;;;11.87;73.16;99743.19;4525873;31;79251;-74
2022/10/11 01:09:51;;;;;;;0.75;0.75;;;;;;;12.64;70.69;99744.97;4493918;31;124663;-73
2022/10/11 01:12:32;;;;;;;0.65;0.65;;;;;;;12.64;70.35;99742.37;4493230;32;145947;-73
2022/10/11 01:15:41;;;;;;;1.17;0.80;;;;;;;12.18;71.39;99743.78;4492032;31;189152;-73
2022/10/11 01:18:26;;;;;;;0.40;0.40;;;;;;;12.05;72.43;99739.53;4493139;31;124367;-73
2022/10/11 01:21:27;;;;;;;1.17;1.02;;;;;;;12.58;70.46;99735.44;4487383;31;832273;-73
2022/10/11 01:24:41;;;;;;;1.10;1.10;;;;;;;12.16;71.29;99740.31;4493181;31;148585;-73
2022/10/11 01:27:44;;;;;;;1.10;1.10;;;;;;;12.36;72.29;99734.84;4492997;32;153914;-73
2022/10/11 01:30:31;;;;;;;2.00;1.90;;;;;;;12.33;71.43;99727.94;4493931;32;123561;-73
2022/10/11 01:33:20;;;;;;;0.98;0.98;;;;;;;12.10;71.78;99727.31;4527099;31;76435;-74
2022/10/11 01:36:09;;;;;;;0.80;0.80;;;;;;;11.64;75.07;99725.13;4493359;31;144446;-73
2022/10/11 01:38:53;;;;;;;1.20;1.15;;;;;;;11.88;73.03;99724.91;4493014;32;155403;-73
2022/10/11 01:41:37;;;;;;;0.95;0.93;;;;;;;11.99;72.84;99723.97;4494010;31;123566;-74
2022/10/11 01:44:19;;;;;;;0.62;0.62;;;;;;;11.53;73.68;99726.06;4492762;31;163268;-74
2022/10/11 01:46:58;;;;;;;0.70;0.70;;;;;;;11.61;73.41;99715.56;4493539;32;135768;-73
2022/10/11 01:49:38;;;;;;;1.40;1.27;;;;;;;12.02;72.80;99722.19;4493591;31;135823;-74
2022/10/11 01:52:18;;;;;;;0.82;0.82;;;;;;;11.98;72.81;99724.81;4494133;31;119259;-72
2022/10/11 01:55:22;;;;;;;1.25;0.98;;;;;;;11.60;73.50;99718.22;4493652;32;134059;-72
2022/10/11 01:58:10;;;;;;;0.73;0.73;;;;;;;11.86;72.15;99720.56;4493605;32;139163;-72
2022/10/11 02:00:59;;;;;;;1.55;1.30;;;;;;;11.35;73.37;99718.41;4493232;31;147574;-72
2022/10/11 02:03:43;;;;;;;0.45;0.45;;;;;;;11.08;75.97;99722.97;4493836;32;133208;-72
2022/10/11 02:06:39;;;;;;;1.05;1.05;;;;;;;11.49;76.19;99716.56;4494015;32;123416;-72
2022/10/11 02:09:25;;;;;;;0.73;0.73;;;;;;;11.19;76.38;99723.75;4494009;32;126107;-72
2022/10/11 02:12:09;;;;;;;0.60;0.60;;;;;;;11.72;73.91;99710.28;4493249;32;146528;-72
2022/10/11 02:14:50;;;;;;;0.50;0.50;;;;;;;11.37;74.68;99716.66;4494223;32;117495;-72
2022/10/11 02:17:33;;;;;;;0.83;0.80;;;;;;;11.62;73.70;99712.09;4492411;32;175145;-72
2022/10/11 02:20:18;;;;;;;42.50;5.20;;;;;;;11.12;74.64;99714.25;4494069;31;119471;-73
2022/10/11 02:23:10;;;;;;;0.83;0.80;;;;;;;11.71;74.47;99727.66;4493441;31;142022;-73
2022/10/11 02:25:49;;;;;;;1.00;1.00;;;;;;;11.38;74.75;99727.09;4526450;31;95525;-73
2022/10/11 02:28:35;;;;;;;2.35;1.37;;;;;;;11.79;72.58;99719.78;4492629;32;166211;-73
2022/10/11 02:31:16;;;;;;;0.43;0.43;;;;;;;11.40;73.29;99721.88;4525891;31;97865;-73
2022/10/11 02:34:00;;;;;;;1.23;1.23;;;;;;;11.16;76.70;99717.69;4493367;31;143549;-73
2022/10/11 02:37:13;;;;;;;0.50;0.50;;;;;;;11.11;77.32;99725.53;4494114;31;120581;-73
2022/10/11 02:40:02;;;;;;;0.90;0.90;;;;;;;11.18;77.79;99721.13;4493718;32;131407;-73
2022/10/11 02:42:47;;;;;;;0.87;0.80;;;;;;;10.52;78.63;99726.75;4527234;31;71159;-73
2022/10/11 02:45:34;;;;;;;0.40;0.40;;;;;;;11.76;73.94;99725.88;4527595;31;60038;-73
2022/10/11 02:48:12;;;;;;;0.50;0.50;;;;;;;11.43;74.36;99729.63;4494110;32;121752;-73
2022/10/11 02:50:52;;;;;;;1.07;1.07;;;;;;;10.65;77.91;99724.94;4493415;32;140647;-73
2022/10/11 02:53:33;;;;;;;0.60;0.60;;;;;;;11.45;75.06;99729.63;4493331;32;143994;-73
2022/10/11 02:56:13;;;;;;;0.43;0.43;;;;;;;11.13;75.53;99734.19;4493303;32;141930;-73
2022/10/11 02:58:53;;;;;;;0.93;0.93;;;;;;;11.20;74.69;99725.44;4526865;31;72922;-73
2022/10/11 03:01:33;;;;;;;0.40;0.40;;;;;;;11.29;76.86;99729.72;4493661;32;133867;-73
2022/10/11 03:04:14;;;;;;;0.80;0.80;;;;;;;11.41;75.54;99731.41;4493967;32;122743;-73
2022/10/11 03:06:54;;;;;;;5.50;5.00;;;;;;;10.98;76.60;99729.09;4493044;32;153514;-73
2022/10/11 03:09:34;;;;;;;0.40;0.40;;;;;;;11.73;73.67;99725.88;4526327;31;88193;-73
2022/10/11 03:12:15;;;;;;;0.93;0.93;;;;;;;10.62;78.87;99731.00;4493767;31;128979;-73
2022/10/11 03:14:57;;;;;;;0.50;0.50;;;;;;;11.39;75.59;99720.97;4493622;32;132481;-73
2022/10/11 03:17:37;;;;;;;0.50;0.50;;;;;;;11.54;74.70;99725.22;4491741;32;196735;-73
2022/10/11 03:20:17;;;;;;;0.47;0.47;;;;;;;11.19;75.28;99728.94;4493377;31;142933;-73
2022/10/11 03:22:58;;;;;;;0.50;0.50;;;;;;;11.41;74.18;99728.78;4493788;32;130668;-74
2022/10/11 03:25:38;;;;;;;1.40;1.30;;;;;;;11.23;75.49;99735.00;4527110;31;72806;-74
2022/10/11 03:28:18;;;;;;;1.90;1.80;;;;;;;10.84;76.21;99736.13;4493077;31;151017;-74
2022/10/11 03:30:56;;;;;;;0.50;0.50;;;;;;;10.67;77.12;99733.59;4493888;31;126079;-73
2022/10/11 03:33:37;;;;;;;0.83;0.83;;;;;;;11.36;74.10;99739.28;4494251;31;115347;-73
2022/10/11 03:36:17;;;;;;;1.77;1.67;;;;;;;10.75;77.53;99745.72;4526755;31;72183;-73
2022/10/11 03:38:58;;;;;;;3.40;2.87;;;;;;;11.31;75.14;99742.75;4493384;31;143016;-75
2022/10/11 03:41:37;;;;;;;0.97;0.97;;;;;;;10.95;75.55;99740.38;4493386;32;139968;-74
2022/10/11 03:44:18;;;;;;;0.60;0.60;;;;;;;11.13;76.06;99749.81;4494212;32;114044;-74
2022/10/11 03:46:59;;;;;;;0.60;0.60;;;;;;;10.78;76.50;99755.25;4493609;32;134915;-74
2022/10/11 03:49:39;;;;;;;0.60;0.60;;;;;;;10.13;80.17;99758.06;4492848;32;160778;-75
2022/10/11 03:52:21;;;;;;;1.37;1.13;;;;;;;10.14;82.88;99751.97;4493301;31;148643;-75
2022/10/11 03:55:01;;;;;;;0.77;0.77;;;;;;;10.45;81.64;99754.53;4526496;31;91159;-75
2022/10/11 03:57:41;;;;;;;0.73;0.73;;;;;;;11.17;76.98;99751.56;4493731;32;131887;-75
2022/10/11 04:00:20;;;;;;;1.97;1.87;;;;;;;10.80;78.45;99751.78;4492825;32;162525;-75
2022/10/11 04:03:02;;;;;;;0.50;0.50;;;;;;;11.31;77.19;99759.28;4493036;32;155709;-75
2022/10/11 04:05:42;;;;;;;0.77;0.77;;;;;;;11.45;75.35;99751.34;4493748;32;132678;-75
2022/10/11 04:08:39;;;;;;;0.50;0.50;;;;;;;11.10;77.16;99755.09;4493474;32;141012;-75
2022/10/11 04:11:20;;;;;;;3.20;3.00;;;;;;;11.49;76.17;99754.81;4494014;31;120188;-74
2022/10/11 04:14:01;;;;;;;1.13;1.13;;;;;;;11.53;75.76;99753.91;4492190;31;181877;-74
2022/10/11 04:16:40;;;;;;;1.17;1.07;;;;;;;11.25;77.17;99758.47;4493892;32;125567;-74
2022/10/11 04:19:20;;;;;;;0.70;0.70;;;;;;;11.33;78.21;99767.06;4489666;32;269876;-74
2022/10/11 04:21:59;;;;;;;0.73;0.73;;;;;;;11.00;78.79;99753.41;4493445;31;138955;-74
2022/10/11 04:24:37;;;;;;;0.60;0.60;;;;;;;11.11;79.39;99759.41;4493712;32;132560;-74
2022/10/11 04:27:17;;;;;;;0.60;0.60;;;;;;;11.23;79.14;99762.81;4493288;31;146975;-74
2022/10/11 04:29:58;;;;;;;1.70;1.60;;;;;;;11.94;76.42;99750.94;4493298;32;147319;-73
2022/10/11 04:32:38;;;;;;;0.70;0.70;;;;;;;11.94;76.37;99750.09;4492973;32;155825;-73
2022/10/11 04:35:18;;;;;;;0.80;0.80;;;;;;;11.56;77.03;99744.31;4493722;32;133398;-73
2022/10/11 04:37:58;;;;;;;0.90;0.90;;;;;;;11.98;76.72;99746.56;4493254;32;145739;-73
2022/10/11 04:40:38;;;;;;;1.10;1.10;;;;;;;12.03;76.44;99752.59;4494115;31;119257;-73
2022/10/11 04:43:19;;;;;;;1.25;1.15;;;;;;;11.65;77.20;99758.19;4493893;31;125808;-72
2022/10/11 04:45:57;;;;;;;0.70;0.70;;;;;;;11.42;78.31;99751.38;4492995;32;156516;-73
2022/10/11 04:48:38;;;;;;;2.43;1.77;;;;;;;11.73;79.35;99756.34;4493290;31;146101;-73
2022/10/11 04:51:20;;;;;;;1.00;0.90;;;;;;;12.04;76.59;99761.31;4493160;32;145466;-73
2022/10/11 04:54:00;;;;;;;0.50;0.50;;;;;;;12.03;76.02;99764.81;4493864;32;127379;-73
2022/10/11 04:56:40;;;;;;;0.53;0.53;;;;;;;12.04;75.67;99756.09;4493848;32;126986;-74
2022/10/11 04:59:20;;;;;;;1.53;1.43;;;;;;;11.55;76.69;99752.16;4526887;31;81059;-75
2022/10/11 05:02:00;;;;;;;1.70;1.60;;;;;;;11.46;78.31;99753.09;4494057;32;121318;-75
2022/10/11 05:04:41;;;;;;;0.73;0.73;;;;;;;11.17;81.45;99761.09;4527027;31;78493;-75
2022/10/11 05:07:20;;;;;;;9.03;6.57;;;;;;;12.11;77.71;99765.59;4493131;31;150115;-75
2022/10/11 05:10:01;;;;;;;0.50;0.50;;;;;;;11.77;78.26;99752.84;4526893;31;78018;-75
2022/10/11 05:12:41;;;;;;;0.50;0.50;;;;;;;12.17;76.93;99762.06;4487265;32;124972;-72
2022/10/11 05:15:20;;;;;;;0.95;0.95;;;;;;;11.98;77.77;99761.38;4483819;32;363604;-72
2022/10/11 05:18:00;;;;;;;0.93;0.88;;;;;;;12.13;78.18;99763.84;4487445;31;139441;-72
2022/10/11 05:20:40;;;;;;;0.60;0.60;;;;;;;11.81;78.51;99764.13;4470360;32;549746;-72
2022/10/11 05:23:20;;;;;;;1.50;1.40;;;;;;;11.58;80.02;99768.62;4478835;32;130252;-72
2022/10/11 05:26:01;;;;;;;0.60;0.60;;;;;;;12.50;77.11;99766.91;4487743;32;127042;-72
2022/10/11 05:28:42;;;;;;;1.15;1.15;;;;;;;12.17;77.57;99762.91;4482907;32;136360;-72
2022/10/11 05:31:23;;;;;;;0.43;0.43;;;;;;;11.88;80.58;99777.09;4478576;32;130777;-72
2022/10/11 05:34:03;;;;;;;0.50;0.50;;;;;;;11.71;82.15;99774.63;4526479;31;69960;-72
2022/10/11 05:36:43;;;;;;;1.35;1.15;;;;;;;12.55;80.30;99785.13;4483221;31;123495;-72
2022/10/11 05:39:24;;;;;;;0.43;0.43;;;;;;;12.86;78.66;99780.37;4478845;32;114227;-72
2022/10/11 05:42:04;;;;;;;0.60;0.60;;;;;;;12.99;77.13;99786.34;4487085;31;135351;-71
2022/10/11 05:44:48;;;;;;;0.50;0.50;;;;;;;12.46;78.60;99785.25;4481858;31;147433;-72
2022/10/11 05:47:29;;;;;;;0.60;0.60;;;;;;;13.13;78.41;99803.56;4524408;31;73696;-70
2022/10/11 05:50:09;;;;;;;1.77;1.67;;;;;;;12.77;79.08;99790.97;4485672;32;161471;-70
2022/10/11 05:52:49;;;;;;;2.92;2.67;;;;;;;12.01;82.93;99797.88;4481383;32;159835;-70
2022/10/11 05:55:34;;;;;;;4.03;1.37;;;;;;;13.28;80.50;99798.13;4523028;31;99806;-71
2022/10/11 05:58:17;;;;;;;2.62;2.05;;;;;;;12.97;80.96;99806.41;4486378;31;119440;-70
2022/10/11 06:00:57;;;;;;;0.60;0.60;;;;;;;13.05;81.65;99807.03;4481183;32;142205;-70
2022/10/11 06:03:35;;;;;;;1.60;1.50;;;;;;;13.15;81.85;99810.50;4487968;32;213728;-71
2022/10/11 06:06:16;;;;;;;1.65;1.35;;;;;;;13.65;80.48;99815.91;4485748;32;140811;-69
2022/10/11 06:08:56;;;;;;;0.65;0.65;;;;;;;14.29;78.15;99806.09;4464722;32;124299;-71
2022/10/11 06:11:37;;;;;;;1.12;1.10;;;;;;;13.95;78.94;99811.94;4483238;32;150752;-70
2022/10/11 06:14:17;;;;;;;1.75;1.17;;;;;;;13.70;80.63;99811.47;4486015;32;126266;-70
2022/10/11 06:16:57;;;;;;;0.50;0.50;;;;;;;13.34;81.21;99813.78;4481713;32;123335;-70
2022/10/11 06:19:37;;;;;;;0.80;0.70;;;;;;;14.10;78.85;99815.16;4489775;32;142699;-71
2022/10/11 06:22:17;;;;;;;3.17;1.08;;;;;;;13.97;78.83;99817.16;4482360;32;248117;-72
2022/10/11 06:24:58;;;;;;;0.85;0.85;;;;;;;14.03;78.48;99823.16;4481513;32;123053;-71
2022/10/11 06:27:38;;;;;;;1.40;1.20;;;;;;;13.86;78.75;99826.94;4489531;31;147063;-72
2022/10/11 06:30:18;;;;;;;0.80;0.73;;;;;;;13.99;78.73;99825.84;4485671;32;128008;-73
2022/10/11 06:32:59;;;;;;;1.35;0.98;;;;;;;13.64;79.28;99822.03;4464487;32;124631;-73
2022/10/11 06:35:44;;;;;;;0.68;0.68;;;;;;;14.51;76.52;99832.75;4526343;31;84754;-75
2022/10/11 06:38:24;;;;;;;0.68;0.68;;;;;;;15.22;73.18;99831.34;4484924;32;128886;-71
2022/10/11 06:41:19;;;;;;;9.18;3.72;;;;;;;14.89;75.03;99833.78;4480833;31;123301;-74
2022/10/11 06:43:59;;;;;;;1.60;1.50;;;;;;;14.88;74.68;99836.47;4487467;32;138852;-74
2022/10/11 06:46:40;;;;;;;0.43;0.43;;;;;;;14.53;74.75;99833.59;4525772;31;98988;-72
2022/10/11 06:49:19;;;;;;;1.50;1.12;;;;;;;15.37;73.57;99840.66;4478808;32;135299;-74
2022/10/11 06:52:03;;;;;;;3.10;2.87;;;;;;;15.34;71.45;99840.72;4526382;31;72204;-73
2022/10/11 06:54:44;;;;;;;1.25;1.15;;;;;;;15.07;72.54;99836.91;4483146;32;120685;-74
2022/10/11 06:57:24;;;;;;;1.02;0.95;;;;;;;14.94;74.68;99845.03;4477803;32;150116;-73
2022/10/11 07:00:07;;;;;;;0.60;0.60;;;;;;;15.42;74.22;99835.28;4486723;32;139498;-73
2022/10/11 07:02:52;;;;;;;1.42;1.33;;;;;;;15.73;71.00;99841.56;4481472;32;142707;-72
2022/10/11 07:05:33;;;;;;;1.40;1.30;;;;;;;15.38;71.30;99838.91;4474887;32;219149;-73
2022/10/11 07:08:14;;;;;;;0.90;0.90;;;;;;;16.27;70.01;99844.62;4485086;32;166040;-73
2022/10/11 07:11:03;;;;;;;0.68;0.68;;;;;;;15.91;71.00;99842.91;4481013;32;152770;-72
2022/10/11 07:13:50;;;;;;;1.20;1.10;;;;;;;16.14;70.41;99849.34;4489164;32;141680;-72
2022/10/11 07:16:29;;;;;;;1.48;1.27;;;;;;;17.00;64.08;99851.47;4485995;31;856668;-73
2022/10/11 07:19:10;;;;;;;0.57;0.57;;;;;;;16.68;64.69;99847.94;4479877;32;133188;-73
2022/10/11 07:21:52;;;;;;;1.30;1.27;;;;;;;17.17;60.40;99849.19;4488298;31;134786;-73
2022/10/11 07:24:35;;;;;;;0.55;0.55;;;;;;;16.84;61.40;99846.63;4479897;32;271519;-73
2022/10/11 07:27:17;;;;;;;1.12;1.02;;;;;;;17.06;58.67;99843.38;4524232;31;125470;-73
2022/10/11 07:29:57;;;;;;;1.42;1.10;;;;;;;16.63;59.38;99844.56;4485657;32;203848;-73
2022/10/11 07:32:38;;;;;;;0.95;0.95;;;;;;;16.87;60.52;99851.81;4525645;31;98705;-73
2022/10/11 07:35:18;;;;;;;1.37;1.12;;;;;;;17.63;60.19;99844.28;4479245;32;130187;-74
2022/10/11 07:37:58;;;;;;;3.45;2.35;;;;;;;17.80;58.49;99847.22;4488059;32;124268;-73
2022/10/11 07:40:43;;;;;;;1.87;1.27;;;;;;;17.55;59.11;99843.66;4449432;32;1226448;-73
2022/10/11 07:43:23;;;;;;;1.17;1.17;;;;;;;18.33;57.41;99854.28;4471228;32;371605;-72
2022/10/11 07:46:04;;;;;;;1.40;1.17;;;;;;;18.73;55.67;99855.53;4487434;32;121557;-73
2022/10/11 07:48:48;;;;;;;1.37;1.27;;;;;;;19.37;54.53;99851.44;4482930;31;125188;-74
2022/10/11 07:51:31;;;;;;;1.20;1.00;;;;;;;19.22;54.84;99852.00;4477430;32;136782;-74
2022/10/11 07:54:11;;;;;;;1.37;1.27;;;;;;;20.09;54.77;99858.28;4524960;31;139323;-73
2022/10/11 07:56:52;;;;;;;1.75;1.55;;;;;;;20.53;53.05;99857.31;4475884;32;335169;-73
2022/10/11 07:59:32;;;;;;;0.60;0.60;;;;;;;20.16;53.07;99857.09;4476750;32;157184;-73
2022/10/11 08:02:11;;;;;;;1.17;0.93;;;;;;;19.31;54.90;99862.25;4486157;32;141706;-74
2022/10/11 08:04:53;;;;;;;0.82;0.82;;;;;;;20.36;55.32;99863.31;4478404;32;255997;-73
2022/10/11 08:07:33;;;;;;;0.55;0.55;;;;;;;20.04;55.20;99861.09;4476736;32;150081;-74
2022/10/11 08:10:13;;;;;;;0.88;0.88;;;;;;;21.61;50.17;99857.75;4486068;32;135911;-73
2022/10/11 08:12:53;;;;;;;5.25;1.37;;;;;;;21.19;52.53;99862.31;4475801;32;332451;-74
2022/10/11 08:15:38;;;;;;;1.80;1.70;;;;;;;20.90;52.12;99861.00;4488716;31;173389;-73
2022/10/11 08:18:20;;;;;;;2.42;1.58;;;;;;;22.26;50.09;99858.06;4485346;32;128140;-73
2022/10/11 08:21:07;;;;;;;0.45;0.45;;;;;;;21.86;50.67;99862.72;4462773;32;173823;-73
2022/10/11 08:23:47;;;;;;;1.80;0.95;;;;;;;23.28;46.82;99857.16;4486287;31;851421;-73
2022/10/11 08:26:27;;;;;;;3.08;2.60;;;;;;;22.94;47.37;99867.84;4480389;32;270669;-73
2022/10/11 08:29:07;;;;;;;1.75;0.98;;;;;;;22.69;48.07;99862.03;4479921;32;144740;-73
2022/10/11 08:31:48;;;;;;;34.20;2.42;;;;;;;23.61;45.90;99871.28;4492914;31;154551;-75
2022/10/11 08:34:28;;;;;;;1.27;1.20;;;;;;;23.50;44.42;99861.25;4493208;32;147333;-75
2022/10/11 08:37:08;;;;;;;1.15;1.05;;;;;;;23.30;45.04;99859.72;4474898;32;164148;-74
2022/10/11 08:39:49;;;;;;;0.75;0.37;;;;;;;23.81;46.14;99863.06;4480177;32;184539;-74
2022/10/11 08:42:46;;;;;;;5.80;2.17;;;;;;;23.43;46.83;99865.19;4487099;31;154691;-74
2022/10/11 08:45:41;;;;;;;1.10;1.10;;;;;;;22.98;47.47;99869.41;4483766;32;147010;-73
2022/10/11 08:48:33;;;;;;;2.12;1.52;;;;;;;23.76;47.78;99856.28;4522151;31;110842;-74
2022/10/11 08:51:44;;;;;;;0.90;0.90;;;;;;;23.60;47.81;99859.81;4484952;32;155504;-73
2022/10/11 08:54:35;;;;;;;2.58;1.60;;;;;;;25.02;43.43;99859.44;4477450;32;141319;-74
2022/10/11 08:57:19;;;;;;;1.48;1.40;;;;;;;25.13;44.83;99857.00;4484727;32;154206;-75
2022/10/11 09:00:03;;;;;;;0.80;0.68;;;;;;;25.44;42.21;99865.72;4479807;32;161468;-74
2022/10/11 09:03:28;;;;;;;1.50;1.40;;;;;;;25.89;41.68;99854.84;4488204;32;154849;-74
2022/10/11 09:06:30;;;;;;;1.35;1.27;;;;;;;26.45;40.44;99862.66;4473532;32;334071;-74
2022/10/11 09:09:22;;;;;;;6.10;1.48;;;;;;;26.80;41.08;99859.41;4493007;32;148221;-75
2022/10/11 09:12:14;;;;;;;2.53;1.98;;;;;;;26.97;40.10;99855.56;4493555;32;134699;-75
2022/10/11 09:15:24;;;;;;;1.23;1.10;;;;;;;26.79;40.55;99860.34;4493358;31;142001;-76
2022/10/11 09:18:08;;;;;;;3.03;2.00;;;;;;;26.83;40.14;99861.88;4493125;31;138276;-75
2022/10/11 09:21:18;;;;;;;1.75;1.35;;;;;;;27.33;37.32;99870.78;4479153;31;161930;-74
2022/10/11 09:24:05;;;;;;;1.12;1.08;;;;;;;27.16;38.76;99871.09;4524557;31;142440;-73
2022/10/11 09:26:42;;;;;;;2.90;1.33;;;;;;;27.16;38.76;99871.09;4500175;31;34024;-73
2022/10/11 09:29:49;;;;;;;2.85;1.98;;;;;;;27.06;37.55;99873.59;4507680;31;33993;-73
2022/10/11 09:32:20;;;;;;;;;;;;;;;27.29;39.41;99874.66;4508814;31;35919;-73
2022/10/11 09:34:59;;;;;;;2.20;1.48;;;;;;;26.98;39.97;99881.28;4500173;31;34795;-73
2022/10/11 09:37:37;;;;;;;4.40;1.95;;;;;;;27.35;38.05;99874.19;4505753;31;33559;-74
2022/10/11 09:40:21;;;;;;;3.50;2.50;;;;;;;27.14;38.35;99875.72;4506829;31;33897;-73
2022/10/11 09:42:49;;;;;;;3.45;2.37;;;;;;;27.29;37.83;99873.81;4499879;31;35058;-74
2022/10/11 09:45:20;;;;;;;1.95;1.77;;;;;;;27.52;38.19;99872.16;4507725;31;34249;-73
2022/10/11 09:47:50;;;;;;;2.95;2.53;;;;;;;28.00;36.99;99874.84;4504749;31;33447;-73
2022/10/11 09:50:22;;;;;;;2.70;2.50;;;;;;;28.08;37.70;99874.25;4501064;31;33925;-74
2022/10/11 09:52:59;;;;;;;2.03;1.90;;;;;;;28.20;35.92;99869.81;4510363;31;35015;-74
2022/10/11 09:55:42;;;;;;;1.10;1.00;;;;;;;28.93;34.79;99868.66;4503659;31;34359;-73
2022/10/11 09:58:25;;;;;;;3.62;1.30;;;;;;;28.60;34.89;99873.00;4513586;31;33496;-75
2022/10/11 10:01:20;;;;;;;1.98;1.77;;;;;;;28.65;35.15;99875.34;4513552;31;34713;-74
2022/10/11 10:04:05;;;;;;;1.65;1.52;;;;;;;28.60;35.05;99866.78;4512316;31;35121;-75
2022/10/11 10:06:33;;;;;;;1.98;1.73;;;;;;;29.23;36.54;99865.38;4512156;31;34320;-75
2022/10/11 10:09:26;;;;;;;0.85;0.77;;;;;;;29.21;35.33;99870.03;4513566;31;34179;-75
2022/10/11 10:11:54;;;;;;;2.45;2.08;;;;;;;29.76;34.16;99863.87;4504828;31;34690;-75
2022/10/11 10:14:28;;;;;;;5.60;1.58;;;;;;;30.09;33.12;99862.88;4486336;31;34353;-74
2022/10/11 10:16:59;;;;;;;1.17;1.08;;;;;;;29.93;33.23;99863.31;4513525;31;34392;-74
2022/10/11 10:19:28;;;;;;;1.73;1.58;;;;;;;29.05;33.40;99859.66;4513441;31;34042;-75
2022/10/11 10:21:56;;;;;;;0.88;0.85;;;;;;;27.66;36.32;99858.59;4513154;31;33518;-75
2022/10/11 10:24:37;;;;;;;2.22;2.03;;;;;;;27.16;39.16;99863.97;4513391;31;35150;-75
2022/10/11 10:27:21;;;;;;;1.95;1.80;;;;;;;26.29;40.07;99858.38;4513340;31;34497;-75
2022/10/11 10:30:08;;;;;;;2.42;2.12;;;;;;;25.66;39.87;99853.66;4513618;31;33452;-75
2022/10/11 10:32:45;;;;;;;2.00;1.55;;;;;;;25.59;40.28;99861.22;4513325;31;34072;-76
2022/10/11 10:35:24;;;;;;;1.95;1.83;;;;;;;25.73;42.40;99861.16;4489102;31;34846;-75
2022/10/11 10:37:58;;;;;;;0.88;0.85;;;;;;;24.94;42.67;99867.09;4502640;31;35192;-75
2022/10/11 10:40:57;;;;;;;1.30;1.20;;;;;;;24.92;42.53;99867.19;4502626;31;33363;-76
2022/10/11 10:43:34;;;;;;;2.00;1.48;;;;;;;24.57;45.05;99869.34;4486923;31;33870;-75
2022/10/11 10:46:20;;;;;;;2.20;2.05;;;;;;;24.85;42.76;99862.31;4502523;31;35023;-76
2022/10/11 10:48:58;;;;;;;2.25;1.60;;;;;;;24.16;46.10;99867.28;4501427;31;34463;-75
2022/10/11 10:52:23;;;;;;;3.92;2.35;;;;;;;24.82;43.76;99862.50;4502573;31;34104;-75
2022/10/11 10:55:15;;;;;;;1.98;1.27;;;;;;;25.23;45.56;99861.72;4502525;31;34835;-75
2022/10/11 10:57:52;;;;;;;7.12;2.40;;;;;;;25.13;42.18;99862.31;4502456;31;34988;-75
2022/10/11 11:00:22;;;;;;;2.90;2.65;;;;;;;25.19;41.41;99861.06;4502480;31;34587;-75
2022/10/11 11:03:00;;;;;;;3.25;2.95;;;;;;;25.45;42.55;99850.56;4501354;31;33495;-75
2022/10/11 11:05:47;;;;;;;0.95;0.95;;;;;;;24.42;44.78;99853.31;4502393;31;33942;-75
2022/10/11 11:08:41;;;;;;;2.28;1.35;;;;;;;24.30;44.98;99854.03;4502383;31;35017;-75
2022/10/11 11:11:32;;;;;;;2.03;1.87;;;;;;;24.75;44.09;99851.38;4502351;31;34378;-75
2022/10/11 11:14:18;;;;;;;2.30;1.40;;;;;;;24.96;42.46;99854.53;4502436;31;33811;-75
2022/10/11 11:17:07;;;;;;;1.58;1.48;;;;;;;25.73;41.40;99849.63;4502371;31;34568;-75
2022/10/11 11:19:35;;;;;;;1.52;1.42;;;;;;;26.18;41.56;99852.06;4501244;31;35816;-75
2022/10/11 11:22:37;;;;;;;3.00;1.85;;;;;;;26.89;39.16;99853.41;4502075;31;35140;-76
2022/10/11 11:25:43;;;;;;;2.00;1.52;;;;;;;26.74;40.17;99849.16;4491138;31;33496;-75
2022/10/11 11:28:25;;;;;;;3.78;1.83;;;;;;;27.38;37.51;99847.25;4495603;31;33923;-73
2022/10/11 11:31:12;;;;;;;4.45;1.95;;;;;;;27.07;38.98;99843.22;4484908;32;35837;-74
2022/10/11 11:34:11;;;;;;;4.95;2.95;;;;;;;27.15;36.16;99845.34;4485763;32;34432;-73
2022/10/11 11:36:53;;;;;;;2.47;1.95;;;;;;;26.69;38.36;99848.63;4498940;31;34273;-73
2022/10/11 11:39:24;;;;;;;1.48;1.40;;;;;;;25.64;39.20;99843.13;4492774;31;34037;-74
2022/10/11 11:42:12;;;;;;;2.50;2.25;;;;;;;24.62;42.21;99842.41;4491665;31;35763;-74
2022/10/11 11:44:43;;;;;;;4.07;2.85;;;;;;;24.27;43.76;99840.91;4497523;31;35083;-73
2022/10/11 11:47:25;;;;;;;1.23;1.17;;;;;;;24.72;43.95;99836.41;4489266;31;33365;-74
2022/10/11 11:50:21;;;;;;;1.75;1.65;;;;;;;25.07;44.33;99833.37;4491546;31;34797;-74
2022/10/11 11:53:03;;;;;;;2.70;2.00;;;;;;;25.52;43.67;99838.56;4483518;31;35998;-74
2022/10/11 11:55:51;;;;;;;5.22;2.03;;;;;;;26.47;39.16;99831.34;4492879;31;34517;-74
2022/10/11 11:58:37;;;;;;;1.30;1.20;;;;;;;26.25;38.94;99835.50;4497470;31;34225;-74
2022/10/11 12:01:24;;;;;;;5.15;2.45;;;;;;;25.36;40.84;99830.72;4490750;31;34795;-72
2022/10/11 12:04:04;;;;;;;2.47;1.87;;;;;;;25.78;40.34;99828.84;4490906;31;35035;-72
2022/10/11 12:06:34;;;;;;;4.05;2.72;;;;;;;25.61;40.21;99824.63;4498626;31;35120;-72
2022/10/11 12:09:20;;;;;;;1.62;1.20;;;;;;;25.13;40.60;99822.34;4489690;31;33436;-73
2022/10/11 12:11:59;;;;;;;2.90;1.20;;;;;;;24.27;43.38;99819.63;4492143;31;33883;-73
2022/10/11 12:14:30;;;;;;;2.08;1.70;;;;;;;23.74;46.13;99819.13;4497472;31;35966;-73
2022/10/11 12:17:14;;;;;;;2.28;1.70;;;;;;;24.01;45.59;99824.66;4489820;31;34437;-74
2022/10/11 12:20:00;;;;;;;2.15;1.80;;;;;;;23.70;46.28;99822.06;4491349;31;33129;-73
2022/10/11 12:22:28;;;;;;;3.72;2.78;;;;;;;23.79;46.50;99824.16;4498526;31;33889;-73
2022/10/11 12:25:09;;;;;;;2.08;1.92;;;;;;;23.17;48.34;99822.34;4489162;31;34975;-73
2022/10/11 12:27:49;;;;;;;3.05;1.55;;;;;;;22.87;48.57;99815.09;4492330;31;34354;-73
2022/10/11 12:30:43;;;;;;;2.78;2.47;;;;;;;23.40;47.94;99818.41;4497106;31;34189;-73
2022/10/11 12:33:20;;;;;;;1.15;1.00;;;;;;;22.43;50.38;99815.66;4490855;31;34026;-73
2022/10/11 12:35:54;;;;;;;4.03;1.95;;;;;;;22.13;50.36;99807.41;4491739;31;35972;-73
2022/10/11 12:38:28;;;;;;;3.25;2.92;;;;;;;22.38;50.17;99814.16;4498606;31;35078;-73
2022/10/11 12:41:17;;;;;;;1.67;1.58;;;;;;;22.81;50.45;99810.09;4489410;31;33486;-73